Time;durP1;ratioP1;P1;durP2;ratioP2;P2;SDS_P1;SDS_P2;PMS_P1;PMS_P2;Temp;Humidity;BMP_temperature;BMP_pressure;BME280_temperature;BME280_humidity;BME280_pressure;Samples;Min_cycle;Max_cycle;Signal;HPM_P1;HPM_P2
2021/03/06 00:00:30;;;;;;;3.13;0.80;;;2.00;69.40;;;;;;2077483;28;20026;-81
2021/03/06 00:01:30;;;;;;;2.97;0.77;;;2.00;69.50;;;;;;2080048;28;20447;-81
2021/03/06 00:02:31;;;;;;;3.35;0.70;;;2.00;69.50;;;;;;2078554;28;20482;-81
2021/03/06 00:03:32;;;;;;;2.50;0.80;;;1.90;69.50;;;;;;2075543;28;20033;-81
2021/03/06 00:04:32;;;;;;;1.98;0.75;;;1.90;69.50;;;;;;2081043;28;20033;-81
2021/03/06 00:05:33;;;;;;;4.10;1.10;;;1.90;69.60;;;;;;2072279;28;20038;-81
2021/03/06 00:06:33;;;;;;;2.58;0.90;;;1.90;69.60;;;;;;2072726;28;20067;-81
2021/03/06 00:07:35;;;;;;;1.75;0.82;;;1.90;69.60;;;;;;2072275;28;20519;-81
2021/03/06 00:08:35;;;;;;;1.92;0.75;;;1.90;69.60;;;;;;2064985;28;20023;-81
2021/03/06 00:09:36;;;;;;;2.67;0.93;;;1.90;70.30;;;;;;2066224;28;20041;-81
2021/03/06 00:10:37;;;;;;;2.63;0.70;;;1.80;69.70;;;;;;2071153;28;20033;-82
2021/03/06 00:11:38;;;;;;;2.65;0.88;;;1.90;69.70;;;;;;2073418;28;20396;-82
2021/03/06 00:12:43;;;;;;;3.50;0.90;;;1.90;69.80;;;;;;2075735;28;20085;-82
2021/03/06 00:13:44;;;;;;;2.83;0.75;;;1.80;69.80;;;;;;2072756;28;20034;-82
2021/03/06 00:14:45;;;;;;;3.00;1.00;;;1.80;69.80;;;;;;2072801;28;20469;-81
2021/03/06 00:15:45;;;;;;;3.03;0.88;;;1.80;69.80;;;;;;2068442;28;20496;-82
2021/03/06 00:16:46;;;;;;;2.40;0.77;;;1.80;70.50;;;;;;2064710;28;20508;-81
2021/03/06 00:17:47;;;;;;;3.00;0.73;;;1.80;69.90;;;;;;2056426;28;20073;-81
2021/03/06 00:18:47;;;;;;;1.52;0.73;;;1.80;70.50;;;;;;2063340;28;20497;-81
2021/03/06 00:19:48;;;;;;;3.28;0.70;;;1.80;70.00;;;;;;2062774;28;20352;-82
2021/03/06 00:20:49;;;;;;;1.33;0.63;;;1.80;70.00;;;;;;2068766;28;20026;-81
2021/03/06 00:21:49;;;;;;;1.60;0.60;;;1.80;70.00;;;;;;2064308;28;20497;-82
2021/03/06 00:22:50;;;;;;;4.25;1.00;;;1.70;70.00;;;;;;2064703;28;20157;-81
2021/03/06 00:23:51;;;;;;;3.53;0.90;;;1.80;70.10;;;;;;2072637;28;20061;-82
2021/03/06 00:24:52;;;;;;;1.90;0.70;;;1.70;70.10;;;;;;2080622;28;20131;-81
2021/03/06 00:25:52;;;;;;;3.25;0.70;;;1.70;70.10;;;;;;2069129;28;20095;-81
2021/03/06 00:26:53;;;;;;;2.08;0.60;;;1.70;70.10;;;;;;2064422;28;20563;-81
2021/03/06 00:27:53;;;;;;;2.65;0.90;;;1.70;70.10;;;;;;2064327;28;20030;-82
2021/03/06 00:28:54;;;;;;;1.88;0.70;;;1.70;70.80;;;;;;2055461;28;20042;-81
2021/03/06 00:29:55;;;;;;;2.28;0.70;;;1.70;70.20;;;;;;2072042;28;20026;-81
2021/03/06 00:30:55;;;;;;;2.00;0.80;;;1.70;70.30;;;;;;2072711;28;20112;-81
2021/03/06 00:31:56;;;;;;;2.10;0.70;;;1.70;70.40;;;;;;2063761;28;20532;-82
2021/03/06 00:32:56;;;;;;;1.75;0.60;;;1.70;70.40;;;;;;2080855;28;20026;-81
2021/03/06 00:33:57;;;;;;;4.15;1.00;;;1.70;70.40;;;;;;2080453;28;20064;-81
2021/03/06 00:34:58;;;;;;;3.33;0.85;;;1.70;70.40;;;;;;2071922;28;20034;-81
2021/03/06 00:35:58;;;;;;;2.03;0.80;;;1.70;70.40;;;;;;2061806;28;20034;-81
2021/03/06 00:36:59;;;;;;;3.53;0.93;;;1.70;70.40;;;;;;2064296;28;20446;-81
2021/03/06 00:38:00;;;;;;;2.22;0.63;;;1.60;70.40;;;;;;2064360;28;20108;-81
2021/03/06 00:39:01;;;;;;;3.08;0.85;;;1.70;70.50;;;;;;2070483;28;20048;-81
2021/03/06 00:40:05;;;;;;;2.83;0.60;;;1.70;70.50;;;;;;2063634;28;20468;-81
2021/03/06 00:41:05;;;;;;;2.15;0.60;;;1.70;70.50;;;;;;2064630;28;20532;-81
2021/03/06 00:42:06;;;;;;;3.58;0.80;;;1.70;70.50;;;;;;2071774;28;20058;-81
2021/03/06 00:43:07;;;;;;;2.13;0.60;;;1.70;70.50;;;;;;2064469;28;20030;-81
2021/03/06 00:44:07;;;;;;;2.63;0.70;;;1.70;70.50;;;;;;2063775;28;20037;-81
2021/03/06 00:45:08;;;;;;;2.15;0.90;;;1.70;70.50;;;;;;2066454;28;20049;-81
2021/03/06 00:46:09;;;;;;;2.78;0.77;;;1.70;70.50;;;;;;2071299;28;20488;-81
2021/03/06 00:47:10;;;;;;;3.85;0.82;;;1.60;70.50;;;;;;2072541;28;20029;-81
2021/03/06 00:48:10;;;;;;;2.95;0.85;;;1.60;70.50;;;;;;2078364;28;20041;-81
2021/03/06 00:49:15;;;;;;;2.80;0.80;;;1.60;70.50;;;;;;2065809;28;20030;-82
2021/03/06 00:50:27;;;;;;;3.50;0.80;;;1.60;70.60;;;;;;2064340;28;20037;-82
2021/03/06 00:51:27;;;;;;;2.75;0.90;;;1.60;70.70;;;;;;2067892;28;20098;-81
2021/03/06 00:52:28;;;;;;;4.22;1.00;;;1.60;70.70;;;;;;2070249;28;20579;-81
2021/03/06 00:53:29;;;;;;;1.83;0.70;;;1.60;70.70;;;;;;2072356;28;20034;-81
2021/03/06 00:54:29;;;;;;;2.22;0.70;;;1.60;70.80;;;;;;2070989;28;20021;-81
2021/03/06 00:55:30;;;;;;;2.75;0.90;;;1.60;70.80;;;;;;2057017;28;20121;-81
2021/03/06 00:56:31;;;;;;;2.92;0.63;;;1.50;70.80;;;;;;2048448;29;20086;-82
2021/03/06 00:57:31;;;;;;;2.38;0.80;;;1.50;70.90;;;;;;2048393;28;20047;-82
2021/03/06 00:58:32;;;;;;;4.32;0.90;;;1.60;71.00;;;;;;2057812;28;20054;-81
2021/03/06 00:59:32;;;;;;;2.03;0.70;;;1.50;71.00;;;;;;2064494;28;20038;-81
2021/03/06 01:00:33;;;;;;;2.95;0.90;;;1.50;71.10;;;;;;2074640;28;20137;-81
2021/03/06 01:01:34;;;;;;;3.25;0.70;;;1.50;71.20;;;;;;2075085;28;20033;-81
2021/03/06 01:02:34;;;;;;;2.60;0.63;;;1.50;71.80;;;;;;2076853;28;20491;-82
2021/03/06 01:03:35;;;;;;;1.92;0.80;;;1.50;71.90;;;;;;2079515;28;20121;-81
2021/03/06 01:04:35;;;;;;;2.20;0.80;;;1.50;71.90;;;;;;2068624;28;20487;-81
2021/03/06 01:05:36;;;;;;;2.25;0.70;;;1.50;71.30;;;;;;2077155;28;20038;-81
2021/03/06 01:06:37;;;;;;;1.50;0.60;;;1.40;71.90;;;;;;2079445;28;20071;-82
2021/03/06 01:07:38;;;;;;;1.58;0.77;;;1.40;71.30;;;;;;2080277;28;20030;-82
2021/03/06 01:08:38;;;;;;;2.40;0.80;;;1.40;71.40;;;;;;2072143;28;20130;-82
2021/03/06 01:09:39;;;;;;;3.42;0.80;;;1.40;71.40;;;;;;2068998;28;20022;-81
2021/03/06 01:10:46;;;;;;;2.85;0.90;;;1.40;71.40;;;;;;2056348;28;20061;-81
2021/03/06 01:11:47;;;;;;;2.20;0.82;;;1.40;71.50;;;;;;2042147;28;20028;-82
2021/03/06 01:12:48;;;;;;;2.53;0.80;;;1.40;71.50;;;;;;2056471;28;20082;-82
2021/03/06 01:13:48;;;;;;;4.47;1.00;;;1.40;71.50;;;;;;2064318;28;20077;-82
2021/03/06 01:14:49;;;;;;;3.63;0.70;;;1.40;71.60;;;;;;2059067;28;20113;-81
2021/03/06 01:15:49;;;;;;;3.30;0.70;;;1.40;71.60;;;;;;2071490;28;20025;-81
2021/03/06 01:16:50;;;;;;;2.33;0.75;;;1.40;71.70;;;;;;2071637;28;20064;-82
2021/03/06 01:17:51;;;;;;;2.45;0.60;;;1.40;71.70;;;;;;2055358;28;20496;-81
2021/03/06 01:18:51;;;;;;;2.72;0.60;;;1.30;71.70;;;;;;2055479;28;20141;-82
2021/03/06 01:19:52;;;;;;;2.17;0.90;;;1.30;71.80;;;;;;2063311;28;20034;-81
2021/03/06 01:20:53;;;;;;;1.75;0.70;;;1.40;71.80;;;;;;2063775;28;20476;-81
2021/03/06 01:21:54;;;;;;;2.28;0.77;;;1.30;71.80;;;;;;2072195;28;20391;-82
2021/03/06 01:22:55;;;;;;;2.42;0.80;;;1.30;71.80;;;;;;2073142;28;20081;-81
2021/03/06 01:23:55;;;;;;;2.25;0.73;;;1.30;71.80;;;;;;2082217;28;20048;-81
2021/03/06 01:24:56;;;;;;;3.75;0.80;;;1.40;72.50;;;;;;2073960;28;20045;-82
2021/03/06 01:25:57;;;;;;;2.50;0.60;;;1.40;71.90;;;;;;2065223;28;20056;-81
2021/03/06 01:26:57;;;;;;;3.13;0.80;;;1.40;71.90;;;;;;2065533;28;20082;-82
2021/03/06 01:27:58;;;;;;;4.10;0.80;;;1.40;72.00;;;;;;2065265;28;20100;-81
2021/03/06 01:28:59;;;;;;;1.40;0.68;;;1.30;71.90;;;;;;2066367;28;20575;-79
2021/03/06 01:29:59;;;;;;;2.28;1.05;;;1.40;72.00;;;;;;2066489;28;20030;-81
2021/03/06 01:31:00;;;;;;;2.33;0.70;;;1.40;72.00;;;;;;2071207;28;20026;-82
2021/03/06 01:32:01;;;;;;;1.55;0.60;;;1.40;72.00;;;;;;2065743;28;20030;-81
2021/03/06 01:33:02;;;;;;;2.55;0.90;;;1.40;72.00;;;;;;2076394;28;20129;-81
2021/03/06 01:34:03;;;;;;;2.75;0.95;;;1.30;72.00;;;;;;2071719;28;20022;-81
2021/03/06 01:35:06;;;;;;;3.22;0.80;;;1.30;72.00;;;;;;2065558;28;20076;-82
2021/03/06 01:36:06;;;;;;;1.35;0.60;;;1.30;72.10;;;;;;2070448;28;20034;-81
2021/03/06 01:37:07;;;;;;;4.25;0.65;;;1.30;72.10;;;;;;2071313;28;20535;-81
2021/03/06 01:38:08;;;;;;;2.58;0.65;;;1.40;72.10;;;;;;2073939;28;20124;-81
2021/03/06 01:39:08;;;;;;;2.30;0.65;;;1.30;72.10;;;;;;2065952;28;20026;-82
2021/03/06 01:40:15;;;;;;;1.67;0.70;;;1.30;72.20;;;;;;2057263;28;20031;-81
2021/03/06 01:41:15;;;;;;;2.60;0.70;;;1.30;72.20;;;;;;2076164;28;20041;-81
2021/03/06 01:42:18;;;;;;;2.95;0.90;;;1.30;72.30;;;;;;2075723;28;20125;-81
2021/03/06 01:43:19;;;;;;;1.77;0.70;;;1.30;72.30;;;;;;2066121;28;20037;-81
2021/03/06 01:44:19;;;;;;;1.92;0.70;;;1.30;72.30;;;;;;2065680;28;20026;-81
2021/03/06 01:45:20;;;;;;;2.03;0.70;;;1.30;72.40;;;;;;2065361;28;20030;-82
2021/03/06 01:46:21;;;;;;;3.40;0.80;;;1.30;72.40;;;;;;2065617;28;20110;-82
2021/03/06 01:47:22;;;;;;;3.35;0.80;;;1.30;72.50;;;;;;2065594;28;20028;-82
2021/03/06 01:48:22;;;;;;;2.00;0.70;;;1.30;72.50;;;;;;2074254;28;20033;-81
2021/03/06 01:49:23;;;;;;;3.20;0.70;;;1.20;72.50;;;;;;2065514;28;20436;-81
2021/03/06 01:50:34;;;;;;;3.25;0.80;;;1.20;72.60;;;;;;2073619;28;20030;-82
2021/03/06 01:51:35;;;;;;;2.25;0.82;;;1.20;72.60;;;;;;2074203;28;20503;-82
2021/03/06 01:52:36;;;;;;;3.20;0.60;;;1.20;72.60;;;;;;2065096;28;20083;-82
2021/03/06 01:53:38;;;;;;;1.63;0.60;;;1.20;72.70;;;;;;2062429;28;20026;-81
2021/03/06 01:54:40;;;;;;;3.22;0.85;;;1.20;72.60;;;;;;2065530;28;20098;-81
2021/03/06 01:55:43;;;;;;;1.80;0.60;;;1.20;72.70;;;;;;2068097;28;20488;-82
2021/03/06 01:56:44;;;;;;;2.83;0.75;;;1.20;72.70;;;;;;2073251;28;20025;-81
2021/03/06 01:57:45;;;;;;;3.30;0.70;;;1.20;72.80;;;;;;2072302;28;20148;-82
2021/03/06 01:58:46;;;;;;;3.97;0.88;;;1.20;72.80;;;;;;2069670;28;20578;-82
2021/03/06 01:59:47;;;;;;;2.40;0.77;;;1.20;72.90;;;;;;2073491;28;20037;-82
2021/03/06 02:00:47;;;;;;;3.05;0.90;;;1.10;72.80;;;;;;2069240;28;20030;-82
2021/03/06 02:01:48;;;;;;;2.85;1.27;;;1.10;73.50;;;;;;2069652;28;20416;-80
2021/03/06 02:02:50;;;;;;;2.70;0.80;;;1.10;73.60;;;;;;2075369;28;20058;-81
2021/03/06 02:03:51;;;;;;;2.80;0.93;;;1.10;73.00;;;;;;2088581;28;20029;-80
2021/03/06 02:04:51;;;;;;;4.03;1.00;;;1.10;73.00;;;;;;2081729;28;20058;-80
2021/03/06 02:05:52;;;;;;;2.15;0.60;;;1.10;73.10;;;;;;2080177;28;20097;-81
2021/03/06 02:06:53;;;;;;;3.10;0.98;;;1.10;73.20;;;;;;2077985;28;20060;-81
2021/03/06 02:07:55;;;;;;;3.80;0.90;;;1.00;73.20;;;;;;2060722;28;20421;-82
2021/03/06 02:08:55;;;;;;;2.20;0.70;;;1.10;73.30;;;;;;2067582;28;20081;-82
2021/03/06 02:10:00;;;;;;;3.30;0.80;;;1.10;73.40;;;;;;2081740;28;20577;-81
2021/03/06 02:11:01;;;;;;;2.13;0.70;;;1.10;73.40;;;;;;2061186;28;20034;-81
2021/03/06 02:12:24;;;;;;;4.07;1.05;;;1.10;73.40;;;;;;2058135;28;20026;-81
2021/03/06 02:13:49;;;;;;;3.03;1.00;;;1.10;73.40;;;;;;2080244;28;20030;-81
2021/03/06 02:15:10;;;;;;;3.33;0.80;;;1.10;74.00;;;;;;2075834;28;20057;-81
2021/03/06 02:16:23;;;;;;;4.38;0.70;;;1.10;73.30;;;;;;2080784;28;20392;-81
2021/03/06 02:17:48;;;;;;;3.55;0.70;;;1.10;73.30;;;;;;2088700;28;20037;-81
2021/03/06 02:18:52;;;;;;;3.28;0.80;;;1.10;73.30;;;;;;2070728;28;20037;-82
2021/03/06 02:20:23;;;;;;;2.47;0.63;;;1.10;73.30;;;;;;2086434;28;20022;-81
2021/03/06 02:21:33;;;;;;;2.55;0.75;;;1.10;73.40;;;;;;2073679;28;20109;-81
2021/03/06 02:23:25;;;;;;;2.63;0.70;;;1.00;73.30;;;;;;2076188;28;20096;-82
2021/03/06 02:24:35;;;;;;;2.40;0.85;;;1.00;73.40;;;;;;2090279;28;20037;-81
2021/03/06 02:25:51;;;;;;;2.97;0.88;;;1.00;73.30;;;;;;2076995;28;20116;-81
2021/03/06 02:27:23;;;;;;;3.03;0.90;;;1.00;73.40;;;;;;2076137;28;20029;-81
2021/03/06 02:28:35;;;;;;;3.20;0.82;;;1.00;73.40;;;;;;2073907;28;20042;-81
2021/03/06 02:29:40;;;;;;;3.55;0.77;;;1.00;73.40;;;;;;2072542;28;20117;-81
2021/03/06 02:30:42;;;;;;;2.45;0.60;;;1.00;73.50;;;;;;2066380;28;20034;-81
2021/03/06 02:31:43;;;;;;;2.55;0.60;;;1.00;73.50;;;;;;2082288;28;20050;-81
2021/03/06 02:32:47;;;;;;;2.97;0.75;;;1.00;73.60;;;;;;2082451;28;20025;-82
2021/03/06 02:34:15;;;;;;;2.22;0.80;;;0.90;73.60;;;;;;2086352;28;20423;-81
2021/03/06 02:35:21;;;;;;;3.15;0.80;;;0.90;73.70;;;;;;2089367;28;20088;-83
2021/03/06 02:36:24;;;;;;;3.53;0.70;;;0.90;73.80;;;;;;2089115;28;20018;-81
2021/03/06 02:37:26;;;;;;;4.22;0.70;;;0.90;73.80;;;;;;2079970;28;20052;-81
2021/03/06 02:38:29;;;;;;;4.35;0.80;;;0.90;73.90;;;;;;2076716;28;20054;-82
2021/03/06 02:39:32;;;;;;;3.60;0.77;;;0.90;73.90;;;;;;2068800;28;20039;-81
2021/03/06 02:40:36;;;;;;;3.13;0.90;;;0.90;74.00;;;;;;2078995;28;20136;-82
2021/03/06 02:41:37;;;;;;;1.85;0.70;;;0.90;74.10;;;;;;2072807;28;20104;-81
2021/03/06 02:42:40;;;;;;;3.03;0.77;;;0.90;74.20;;;;;;2079170;28;20029;-81
2021/03/06 02:43:42;;;;;;;3.00;0.57;;;0.90;74.20;;;;;;2076227;28;20018;-81
2021/03/06 02:44:43;;;;;;;1.58;0.60;;;0.90;74.30;;;;;;2073827;28;20149;-82
2021/03/06 02:45:46;;;;;;;3.95;0.60;;;0.90;74.30;;;;;;2073286;28;20029;-82
2021/03/06 02:46:47;;;;;;;3.17;0.90;;;0.90;74.40;;;;;;2065557;28;20022;-82
2021/03/06 02:47:48;;;;;;;2.65;0.73;;;0.80;74.30;;;;;;2073576;28;20030;-81
2021/03/06 02:48:51;;;;;;;2.80;0.43;;;0.90;74.50;;;;;;2074035;28;20025;-81
2021/03/06 02:49:54;;;;;;;1.10;0.50;;;0.90;74.60;;;;;;2081503;28;20089;-81
2021/03/06 02:50:55;;;;;;;3.05;0.90;;;0.80;74.60;;;;;;2074398;28;20026;-81
2021/03/06 02:51:57;;;;;;;2.30;0.73;;;0.80;74.60;;;;;;2081247;28;20079;-81
2021/03/06 02:52:57;;;;;;;1.20;0.52;;;0.80;74.70;;;;;;2067989;28;20501;-81
2021/03/06 02:53:58;;;;;;;3.75;0.60;;;0.80;74.70;;;;;;2065335;28;20870;-82
2021/03/06 02:54:59;;;;;;;1.42;0.63;;;0.80;74.80;;;;;;2068992;28;20057;-82
2021/03/06 02:56:00;;;;;;;1.85;0.60;;;0.80;74.80;;;;;;2067150;28;20452;-81
2021/03/06 02:57:00;;;;;;;1.42;0.65;;;0.80;74.90;;;;;;2072125;28;20496;-81
2021/03/06 02:58:12;;;;;;;1.90;0.60;;;0.80;74.90;;;;;;2056876;28;20027;-82
2021/03/06 02:59:34;;;;;;;3.17;0.57;;;0.80;75.00;;;;;;2059631;28;20479;-81
2021/03/06 03:00:42;;;;;;;2.75;0.70;;;0.80;75.00;;;;;;2073372;28;20036;-81
2021/03/06 03:02:07;;;;;;;4.45;0.80;;;0.80;75.00;;;;;;2079374;28;20087;-82
2021/03/06 03:03:47;;;;;;;2.80;0.70;;;0.70;75.00;;;;;;2077639;28;20440;-82
2021/03/06 03:05:00;;;;;;;1.98;0.70;;;0.80;75.00;;;;;;2056112;28;20070;-81
2021/03/06 03:06:24;;;;;;;3.33;0.80;;;0.80;74.90;;;;;;2076730;28;20132;-82
2021/03/06 03:07:36;;;;;;;2.97;0.50;;;0.70;74.90;;;;;;2073109;28;20026;-82
2021/03/06 03:08:58;;;;;;;2.85;0.75;;;0.70;74.90;;;;;;2073385;28;20066;-82
2021/03/06 03:10:03;;;;;;;2.97;0.60;;;0.70;75.00;;;;;;2069096;28;20058;-82
2021/03/06 03:11:09;;;;;;;2.72;0.52;;;0.70;75.00;;;;;;2073475;28;20060;-81
2021/03/06 03:12:14;;;;;;;1.42;0.50;;;0.70;75.10;;;;;;2073515;28;20037;-82
2021/03/06 03:13:21;;;;;;;1.83;0.63;;;0.60;75.10;;;;;;2065723;28;20050;-82
2021/03/06 03:14:42;;;;;;;1.80;0.52;;;0.60;75.10;;;;;;2074058;28;20025;-82
2021/03/06 03:15:45;;;;;;;;;;;0.60;75.20;;;;;;2073161;28;20128;-81
2021/03/06 03:16:57;;;;;;;2.33;0.55;;;0.60;75.20;;;;;;2073365;28;19909;-81
2021/03/06 03:17:58;;;;;;;1.70;0.68;;;0.60;75.10;;;;;;2077638;28;20030;-81
2021/03/06 03:19:04;;;;;;;2.65;0.70;;;0.60;75.10;;;;;;2075626;28;20030;-82
2021/03/06 03:20:44;;;;;;;2.05;0.63;;;0.60;75.20;;;;;;2072965;28;20030;-81
2021/03/06 03:21:48;;;;;;;0.95;0.50;;;0.60;75.30;;;;;;2072439;28;20032;-81
2021/03/06 03:22:55;;;;;;;3.45;0.70;;;0.60;75.30;;;;;;2073545;28;20021;-81
2021/03/06 03:24:03;;;;;;;3.40;0.70;;;0.60;75.30;;;;;;2081056;28;20392;-82
2021/03/06 03:25:09;;;;;;;1.98;0.68;;;0.60;75.40;;;;;;2072807;28;20512;-82
2021/03/06 03:26:13;;;;;;;2.83;0.70;;;0.60;75.40;;;;;;2065027;28;20066;-82
2021/03/06 03:27:16;;;;;;;3.38;0.63;;;0.60;75.50;;;;;;2081148;28;20387;-82
2021/03/06 03:28:17;;;;;;;1.50;0.60;;;0.60;75.60;;;;;;2089495;28;20082;-82
2021/03/06 03:29:19;;;;;;;3.40;0.47;;;0.60;75.70;;;;;;2089590;28;20448;-82
2021/03/06 03:30:21;;;;;;;1.77;0.60;;;0.60;75.70;;;;;;2074092;28;20081;-82
2021/03/06 03:31:24;;;;;;;2.20;0.70;;;0.60;75.80;;;;;;2065112;28;20515;-82
2021/03/06 03:32:28;;;;;;;1.83;0.60;;;0.60;75.90;;;;;;2066306;28;20062;-82
2021/03/06 03:33:29;;;;;;;3.13;0.57;;;0.60;75.90;;;;;;2074950;28;20022;-82
2021/03/06 03:34:33;;;;;;;2.03;0.70;;;0.60;75.90;;;;;;2080987;28;20458;-82
2021/03/06 03:35:36;;;;;;;2.88;0.70;;;0.60;76.00;;;;;;2071381;28;20030;-80
2021/03/06 03:36:38;;;;;;;2.10;0.70;;;0.60;76.00;;;;;;2070035;28;20026;-82
2021/03/06 03:37:41;;;;;;;1.63;0.68;;;0.60;76.00;;;;;;2072959;28;20403;-82
2021/03/06 03:38:44;;;;;;;2.25;0.60;;;0.60;76.00;;;;;;2077723;28;20025;-82
2021/03/06 03:39:48;;;;;;;1.98;0.65;;;0.60;76.00;;;;;;2081237;28;20025;-82
2021/03/06 03:40:49;;;;;;;2.40;0.50;;;0.60;76.10;;;;;;2075675;28;20081;-82
2021/03/06 03:41:50;;;;;;;1.88;0.57;;;0.60;76.10;;;;;;2066141;28;20138;-82
2021/03/06 03:42:51;;;;;;;1.95;0.63;;;0.50;76.10;;;;;;2064863;28;20023;-83
2021/03/06 03:43:53;;;;;;;2.35;0.60;;;0.60;76.30;;;;;;2072974;28;20143;-82
2021/03/06 03:44:54;;;;;;;2.60;0.80;;;0.60;76.30;;;;;;2072385;28;20078;-82
2021/03/06 03:45:56;;;;;;;3.17;0.80;;;0.50;76.30;;;;;;2064711;28;20026;-82
2021/03/06 03:46:56;;;;;;;3.85;0.70;;;0.50;76.30;;;;;;2071567;28;20033;-82
2021/03/06 03:47:59;;;;;;;2.97;0.90;;;0.50;76.40;;;;;;2072959;28;20040;-82
2021/03/06 03:49:04;;;;;;;2.40;0.70;;;0.50;76.50;;;;;;2057105;28;20045;-82
2021/03/06 03:50:08;;;;;;;2.78;0.98;;;0.50;76.60;;;;;;2056750;28;20437;-82
2021/03/06 03:51:09;;;;;;;2.13;0.65;;;0.50;76.70;;;;;;2063541;28;20077;-82
2021/03/06 03:52:11;;;;;;;2.72;0.70;;;0.50;76.80;;;;;;2062815;28;20063;-82
2021/03/06 03:53:13;;;;;;;2.03;0.65;;;0.40;76.80;;;;;;2073139;28;20096;-82
2021/03/06 03:54:15;;;;;;;1.63;0.65;;;0.50;76.90;;;;;;2079800;28;20064;-82
2021/03/06 03:55:17;;;;;;;1.80;0.65;;;0.50;77.00;;;;;;2080861;28;20558;-82
2021/03/06 03:56:18;;;;;;;1.73;0.60;;;0.50;77.00;;;;;;2078476;28;20017;-82
2021/03/06 03:57:19;;;;;;;1.70;0.70;;;0.50;77.00;;;;;;2072626;28;20500;-81
2021/03/06 03:58:19;;;;;;;3.30;0.70;;;0.50;77.00;;;;;;2084972;28;20037;-82
2021/03/06 03:59:20;;;;;;;1.35;0.40;;;0.40;77.10;;;;;;2079178;28;20056;-81
2021/03/06 04:00:22;;;;;;;1.48;0.45;;;0.40;77.20;;;;;;2069413;28;20065;-82
2021/03/06 04:01:23;;;;;;;1.50;0.55;;;0.40;77.20;;;;;;2072113;28;20045;-81
2021/03/06 04:02:25;;;;;;;2.90;0.75;;;0.40;77.20;;;;;;2080320;28;20528;-81
2021/03/06 04:03:27;;;;;;;3.03;0.70;;;0.40;77.30;;;;;;2088840;28;20075;-82
2021/03/06 04:04:29;;;;;;;1.58;0.57;;;0.40;77.40;;;;;;2067404;28;20377;-82
2021/03/06 04:05:30;;;;;;;2.72;0.70;;;0.40;77.40;;;;;;2072282;28;20476;-81
2021/03/06 04:06:30;;;;;;;3.15;0.60;;;0.40;77.40;;;;;;2063908;28;20030;-81
2021/03/06 04:07:45;;;;;;;1.17;0.52;;;0.40;77.50;;;;;;2064742;28;20680;-82
2021/03/06 04:08:46;;;;;;;2.42;0.52;;;0.30;77.50;;;;;;2070733;28;20475;-82
2021/03/06 04:09:46;;;;;;;1.80;0.65;;;0.30;77.50;;;;;;2072680;28;20041;-82
2021/03/06 04:10:47;;;;;;;4.40;0.75;;;0.30;77.50;;;;;;2069552;28;20488;-82
2021/03/06 04:11:48;;;;;;;0.98;0.40;;;0.30;77.60;;;;;;2063323;28;20065;-82
2021/03/06 04:12:49;;;;;;;2.25;0.70;;;0.30;77.60;;;;;;2080661;28;20030;-82
2021/03/06 04:13:50;;;;;;;1.85;0.50;;;0.30;77.70;;;;;;2078367;28;20496;-82
2021/03/06 04:14:51;;;;;;;2.33;0.57;;;0.30;77.70;;;;;;2071771;28;20041;-82
2021/03/06 04:15:51;;;;;;;3.30;0.63;;;0.30;77.70;;;;;;2058892;28;20035;-83
2021/03/06 04:16:52;;;;;;;2.83;0.70;;;0.30;77.70;;;;;;2063949;28;20030;-82
2021/03/06 04:17:53;;;;;;;2.92;0.68;;;0.30;77.70;;;;;;2059024;28;20061;-82
2021/03/06 04:18:53;;;;;;;1.88;0.63;;;0.30;77.70;;;;;;2065055;28;20030;-82
2021/03/06 04:19:54;;;;;;;3.63;0.80;;;0.30;77.90;;;;;;2047701;28;20103;-81
2021/03/06 04:20:55;;;;;;;3.03;0.60;;;0.30;77.80;;;;;;2048574;28;20034;-82
2021/03/06 04:21:55;;;;;;;1.23;0.60;;;0.20;77.80;;;;;;2070262;28;20089;-81
2021/03/06 04:22:56;;;;;;;1.95;0.63;;;0.20;77.80;;;;;;2068163;28;20120;-82
2021/03/06 04:23:58;;;;;;;1.30;0.50;;;0.20;78.00;;;;;;2062581;28;20074;-82
2021/03/06 04:24:58;;;;;;;2.13;0.70;;;0.20;77.90;;;;;;2072358;28;20028;-81
2021/03/06 04:25:59;;;;;;;1.55;0.50;;;0.20;78.00;;;;;;2072847;28;20041;-82
2021/03/06 04:26:59;;;;;;;2.10;0.57;;;0.20;78.60;;;;;;2065231;28;20057;-82
2021/03/06 04:28:00;;;;;;;3.50;0.68;;;0.20;78.00;;;;;;2064611;28;20030;-82
2021/03/06 04:29:01;;;;;;;2.22;0.60;;;0.20;78.10;;;;;;2064546;28;20453;-82
2021/03/06 04:30:05;;;;;;;2.38;0.50;;;0.20;78.10;;;;;;2054325;28;20023;-82
2021/03/06 04:31:05;;;;;;;2.90;0.60;;;0.10;78.10;;;;;;2072973;28;20037;-82
2021/03/06 04:32:06;;;;;;;2.03;0.52;;;0.10;78.10;;;;;;2081093;28;20442;-82
2021/03/06 04:33:06;;;;;;;0.90;0.40;;;0.10;78.20;;;;;;2072626;28;20124;-82
2021/03/06 04:34:08;;;;;;;4.63;0.80;;;0.10;78.30;;;;;;2064282;28;20018;-82
2021/03/06 04:35:10;;;;;;;3.30;0.70;;;0.10;78.30;;;;;;2072784;28;20034;-82
2021/03/06 04:36:11;;;;;;;2.92;0.55;;;0.10;78.40;;;;;;2062852;28;20034;-82
2021/03/06 04:37:12;;;;;;;2.80;0.50;;;0.10;78.40;;;;;;2060086;28;20035;-82
2021/03/06 04:38:12;;;;;;;2.22;0.70;;;0.10;78.40;;;;;;2070945;28;20118;-82
2021/03/06 04:39:13;;;;;;;4.18;0.77;;;0.10;78.50;;;;;;2079967;28;20073;-82
2021/03/06 04:40:14;;;;;;;4.10;0.80;;;0.10;78.50;;;;;;2081175;28;20084;-82
2021/03/06 04:41:15;;;;;;;2.88;0.70;;;0.10;78.60;;;;;;2079895;28;20942;-82
2021/03/06 04:42:15;;;;;;;2.55;0.70;;;0.10;78.60;;;;;;2072058;28;20033;-81
2021/03/06 04:43:16;;;;;;;1.58;0.57;;;0.10;78.70;;;;;;2063409;28;20149;-82
2021/03/06 04:44:17;;;;;;;3.78;0.82;;;0.10;78.70;;;;;;2072398;28;20030;-82
2021/03/06 04:45:17;;;;;;;2.33;0.60;;;0.10;78.60;;;;;;2072441;28;20118;-82
2021/03/06 04:46:18;;;;;;;2.22;0.60;;;0.10;78.70;;;;;;2064289;28;20027;-82
2021/03/06 04:47:19;;;;;;;2.65;0.60;;;0.10;78.70;;;;;;2064508;28;20034;-82
2021/03/06 04:48:19;;;;;;;3.08;0.70;;;0.10;78.80;;;;;;2072330;28;20032;-81
2021/03/06 04:49:20;;;;;;;2.30;0.90;;;0.10;78.80;;;;;;2073141;28;20025;-82
2021/03/06 04:50:21;;;;;;;3.80;0.82;;;0.10;78.80;;;;;;2072614;28;20033;-82
2021/03/06 04:51:21;;;;;;;2.20;0.70;;;0.10;78.80;;;;;;2071987;28;20037;-81
2021/03/06 04:52:23;;;;;;;2.33;0.60;;;0.10;78.80;;;;;;2060283;28;20042;-82
2021/03/06 04:53:24;;;;;;;3.17;0.93;;;0.10;78.90;;;;;;2063819;28;20399;-81
2021/03/06 04:54:25;;;;;;;1.77;0.70;;;0.10;78.90;;;;;;2070228;28;20092;-81
2021/03/06 04:55:26;;;;;;;1.73;0.40;;;0.10;79.00;;;;;;2063639;28;20073;-81
2021/03/06 04:56:26;;;;;;;2.35;0.60;;;0.10;79.10;;;;;;2066346;28;20033;-82
2021/03/06 04:57:27;;;;;;;1.98;0.60;;;0.10;79.10;;;;;;2073310;28;20034;-82
2021/03/06 04:58:28;;;;;;;2.70;0.50;;;0.10;79.20;;;;;;2081903;28;20308;-81
2021/03/06 04:59:28;;;;;;;2.45;0.60;;;0.10;79.20;;;;;;2073884;28;20127;-81
2021/03/06 05:00:29;;;;;;;3.58;0.50;;;0.10;79.20;;;;;;2067230;28;20479;-82
2021/03/06 05:01:29;;;;;;;1.95;0.50;;;0.10;79.30;;;;;;2072811;28;20064;-81
2021/03/06 05:02:30;;;;;;;2.28;0.75;;;0.10;80.00;;;;;;2060111;28;20404;-81
2021/03/06 05:03:31;;;;;;;2.40;0.70;;;0.10;79.30;;;;;;2058079;28;20034;-82
2021/03/06 05:04:31;;;;;;;2.78;0.93;;;0.10;79.30;;;;;;2072152;28;20061;-82
2021/03/06 05:05:32;;;;;;;2.28;0.60;;;0.10;79.30;;;;;;2061267;28;20113;-81
2021/03/06 05:06:33;;;;;;;3.40;0.75;;;0.10;79.40;;;;;;2074468;28;20037;-81
2021/03/06 05:07:34;;;;;;;3.20;0.90;;;0.10;79.30;;;;;;2074375;28;20113;-81
2021/03/06 05:08:34;;;;;;;1.80;0.60;;;0.10;79.40;;;;;;2075174;28;20072;-81
2021/03/06 05:09:35;;;;;;;2.40;0.70;;;0.10;79.50;;;;;;2082087;28;20507;-82
2021/03/06 05:10:36;;;;;;;3.35;0.80;;;0.10;79.50;;;;;;2082106;28;20129;-82
2021/03/06 05:11:36;;;;;;;2.95;0.60;;;0.10;79.60;;;;;;2074167;28;20071;-81
2021/03/06 05:12:37;;;;;;;1.95;0.45;;;0.10;79.60;;;;;;2073063;28;20365;-82
2021/03/06 05:13:38;;;;;;;4.28;0.75;;;0.10;79.60;;;;;;2073976;28;20026;-82
2021/03/06 05:14:38;;;;;;;2.17;0.70;;;0.10;79.60;;;;;;2065803;28;20556;-81
2021/03/06 05:15:39;;;;;;;1.98;0.60;;;0.10;79.60;;;;;;2067049;28;20076;-81
2021/03/06 05:16:39;;;;;;;1.77;0.50;;;0.10;79.60;;;;;;2074027;28;20034;-82
2021/03/06 05:17:40;;;;;;;2.35;0.60;;;0.10;79.60;;;;;;2065993;28;20038;-82
2021/03/06 05:18:42;;;;;;;2.80;0.57;;;0.10;79.60;;;;;;2062151;28;20064;-81
2021/03/06 05:19:43;;;;;;;2.55;0.60;;;0.10;79.70;;;;;;2065932;28;20078;-81
2021/03/06 05:20:43;;;;;;;2.53;0.70;;;0.10;79.70;;;;;;2076289;28;20080;-82
2021/03/06 05:21:44;;;;;;;4.35;0.80;;;0.10;79.70;;;;;;2073269;28;20022;-81
2021/03/06 05:22:45;;;;;;;2.70;0.77;;;0.10;79.80;;;;;;2064872;28;20033;-81
2021/03/06 05:23:45;;;;;;;2.50;0.75;;;0.10;79.80;;;;;;2057842;28;20027;-81
2021/03/06 05:24:47;;;;;;;2.65;0.68;;;0.10;79.90;;;;;;2063483;28;20054;-81
2021/03/06 05:25:48;;;;;;;1.50;0.50;;;0.10;79.90;;;;;;2069914;28;20025;-81
2021/03/06 05:27:01;;;;;;;4.25;0.60;;;0.10;79.90;;;;;;2073784;28;20118;-81
2021/03/06 05:28:01;;;;;;;2.13;0.70;;;0.10;79.90;;;;;;2067443;28;20049;-82
2021/03/06 05:29:02;;;;;;;3.45;0.80;;;0.10;79.90;;;;;;2067488;28;20158;-81
2021/03/06 05:30:03;;;;;;;2.75;0.80;;;0.10;79.90;;;;;;2078953;28;20028;-81
2021/03/06 05:31:04;;;;;;;1.48;0.70;;;0.00;79.90;;;;;;2065839;28;20030;-81
2021/03/06 05:32:06;;;;;;;2.13;0.65;;;0.00;80.00;;;;;;2056900;28;20026;-81
2021/03/06 05:33:07;;;;;;;5.38;0.90;;;0.10;80.10;;;;;;2064842;28;20030;-82